Hovedside
METAR-TAF:

METAR-TAF

Lufthavner :

Flores, Azorene, Portugal

breddegrad: 39-27N, lengdegrad: 031-08W, høyde over havet: 28 m

Gjeldene værobservasjon

Denne rapporten ble laget for 23 minutter siden, klokken 14:30 UTC
Vind 9 kt fra Nord-nordvest, skiftende mellom Vest-nordvest og Nord
Temperatur 22°C
Luftfuktighet 83%
Trykk 1029 hPa
Sikt 10 km eller mer
Få skyer i en høyde av 1600 ft
Brutte skyer i en høyde av 3500 ft

METAR: LPFL 301430Z 33009KT 300V010 9999 FEW016 BKN035 22/19 Q1029

Tid: 14:53 (14:53 UTC)


TAF: fraværende

Værobservasjoner og værvarsel for over 4000 flyplasser (METAR- og TAF-rapporter).

Tilgjengelige stasjoner er representert av de røde og gule prikkene på kartet.

Hold musepekeren over prikken for å se navnet på stasjonen.

Klikk så for å se værobservasjoner og -varsler.

For å forandre kartet kan du klikke på den grønne knappen med svart kryss for å zoome inn, på den grønne knappen med strek for å zoome ut, eller på de grønne pilene for å se tilstøtende kart.


METAR-TAF: